createdAt,value
2024-01-27T00:00:47.655Z,92438.69
2024-01-27T00:03:21.347Z,92415.16
2024-01-27T00:05:56.537Z,92410.47
2024-01-27T00:08:30.582Z,92413.16
2024-01-27T00:11:04.266Z,92417.50
2024-01-27T00:13:37.939Z,92420.84
2024-01-27T00:16:11.709Z,92428.75
2024-01-27T00:18:45.523Z,92425.78
2024-01-27T00:21:20.650Z,92412.84
2024-01-27T00:23:55.099Z,92418.44
2024-01-27T00:26:29.098Z,92410.75
2024-01-27T00:29:02.951Z,92424.66
2024-01-27T00:31:36.692Z,92421.44
2024-01-27T00:34:10.620Z,92422.13
2024-01-27T00:36:49.788Z,92414.22
2024-01-27T00:39:23.919Z,92418.25
2024-01-27T00:41:59.456Z,92421.59
2024-01-27T00:44:33.212Z,92410.53
2024-01-27T00:47:06.914Z,92428.91
2024-01-27T00:49:40.732Z,92418.38
2024-01-27T00:52:16.080Z,92423.84
2024-01-27T00:54:49.740Z,92420.22
2024-01-27T00:57:23.533Z,92414.78
2024-01-27T00:59:57.361Z,92410.59
2024-01-27T01:02:31.071Z,92421.94
2024-01-27T01:05:05.368Z,92423.66
2024-01-27T01:07:40.397Z,92416.88
2024-01-27T01:10:14.106Z,92414.38
2024-01-27T01:12:47.837Z,92415.66
2024-01-27T01:15:21.571Z,92427.28
2024-01-27T01:17:55.331Z,92423.03
2024-01-27T01:20:29.105Z,92434.19
2024-01-27T01:23:04.135Z,92437.25
2024-01-27T01:25:37.852Z,92432.13
2024-01-27T01:28:11.644Z,92425.91
2024-01-27T01:30:45.299Z,92432.41
2024-01-27T01:33:19.217Z,92433.28
2024-01-27T01:35:53.254Z,92423.03
2024-01-27T01:38:28.304Z,92413.19
2024-01-27T01:41:02.308Z,92412.53
2024-01-27T01:43:35.949Z,92417.22
2024-01-27T01:46:10.176Z,92429.56
2024-01-27T01:48:44.565Z,92413.53
2024-01-27T01:51:18.654Z,92408.75
2024-01-27T01:53:57.191Z,92403.84
2024-01-27T01:56:31.080Z,92415.81
2024-01-27T01:59:04.851Z,92401.28
2024-01-27T02:01:38.782Z,92411.56
2024-01-27T02:04:12.490Z,92415.13
2024-01-27T02:06:46.265Z,92400.06
2024-01-27T02:09:21.431Z,92404.16
2024-01-27T02:11:55.442Z,92382.22
2024-01-27T02:14:29.180Z,92390.69
2024-01-27T02:17:03.490Z,92387.28
2024-01-27T02:19:37.801Z,92383.03
2024-01-27T02:22:11.719Z,92392.63
2024-01-27T02:24:47.743Z,92392.09
2024-01-27T02:27:21.547Z,92389.22
2024-01-27T02:29:55.268Z,92381.66
2024-01-27T02:32:28.961Z,92379.50
2024-01-27T02:35:03.819Z,92378.53
2024-01-27T02:37:37.557Z,92369.94
2024-01-27T02:40:13.337Z,92374.75
2024-01-27T02:42:47.105Z,92370.84
2024-01-27T02:45:21.292Z,92378.53
2024-01-27T02:47:55.295Z,92374.75
2024-01-27T02:50:29.416Z,92372.06
2024-01-27T02:53:03.314Z,92365.50
2024-01-27T02:55:38.355Z,92373.28
2024-01-27T02:58:12.022Z,92374.09
2024-01-27T03:00:45.735Z,92364.59
2024-01-27T03:03:19.565Z,92376.88
2024-01-27T03:05:53.494Z,92374.97
2024-01-27T03:08:27.227Z,92370.16
2024-01-27T03:11:02.345Z,92384.78
2024-01-27T03:13:36.050Z,92385.44
2024-01-27T03:16:11.393Z,92382.56
2024-01-27T03:18:45.117Z,92385.88
2024-01-27T03:21:18.983Z,92385.56
2024-01-27T03:23:52.728Z,92382.63
2024-01-27T03:26:27.816Z,92375.84
2024-01-27T03:29:02.113Z,92380.06
2024-01-27T03:31:36.672Z,92391.47
2024-01-27T03:34:10.809Z,92384.75
2024-01-27T03:36:45.137Z,92387.09
2024-01-27T03:39:19.042Z,92386.09
2024-01-27T03:41:54.153Z,92373.91
2024-01-27T03:44:27.803Z,92372.09
2024-01-27T03:47:01.711Z,92369.78
2024-01-27T03:49:35.805Z,92366.47
2024-01-27T03:52:09.649Z,92369.84
2024-01-27T03:54:43.323Z,92365.59
2024-01-27T03:57:18.591Z,92366.50
2024-01-27T03:59:52.308Z,92363.03
2024-01-27T04:02:25.971Z,92367.50
2024-01-27T04:04:59.703Z,92374.63
2024-01-27T04:07:33.352Z,92370.63
2024-01-27T04:10:07.880Z,92371.63
2024-01-27T04:12:45.193Z,92374.88
2024-01-27T04:15:18.992Z,92370.84
2024-01-27T04:17:53.010Z,92374.41
2024-01-27T04:20:26.833Z,92376.22
2024-01-27T04:23:00.961Z,92358.69
2024-01-27T04:25:34.698Z,92357.47
2024-01-27T04:28:11.922Z,92366.72
2024-01-27T04:30:45.647Z,92361.69
2024-01-27T04:33:19.545Z,92357.69
2024-01-27T04:35:53.800Z,92357.69
2024-01-27T04:38:27.484Z,92372.50
2024-01-27T04:41:01.153Z,92365.94
2024-01-27T04:43:36.578Z,92346.19
2024-01-27T04:46:10.762Z,92358.38
2024-01-27T04:48:44.991Z,92355.34
2024-01-27T04:51:18.748Z,92344.09
2024-01-27T04:53:52.807Z,92351.22
2024-01-27T04:56:26.831Z,92373.75
2024-01-27T04:59:01.933Z,92351.31
2024-01-27T05:01:35.782Z,92354.91
2024-01-27T05:04:09.644Z,92370.84
2024-01-27T05:06:46.268Z,92364.16
2024-01-27T05:09:20.030Z,92375.63
2024-01-27T05:11:54.707Z,92374.63
2024-01-27T05:14:29.802Z,92366.59
2024-01-27T05:17:03.437Z,92362.25
2024-01-27T05:19:37.129Z,92372.50
2024-01-27T05:22:10.781Z,92363.81
2024-01-27T05:24:45.001Z,92368.28
2024-01-27T05:27:18.882Z,92363.38
2024-01-27T05:29:53.954Z,92356.41
2024-01-27T05:32:27.653Z,92360.00
2024-01-27T05:35:01.991Z,92362.34
2024-01-27T05:37:35.778Z,92371.25
2024-01-27T05:40:10.564Z,92391.72
2024-01-27T05:42:46.134Z,92375.41
2024-01-27T05:45:21.551Z,92384.88
2024-01-27T05:47:55.374Z,92390.81
2024-01-27T05:50:31.414Z,92391.69
2024-01-27T05:53:05.416Z,92395.47
2024-01-27T05:55:39.081Z,92402.16
2024-01-27T05:58:12.763Z,92393.34
2024-01-27T06:00:48.086Z,92401.94
2024-01-27T06:03:22.025Z,92403.28
2024-01-27T06:05:55.820Z,92405.16
2024-01-27T06:08:29.506Z,92408.97
2024-01-27T06:11:06.104Z,92413.63
2024-01-27T06:13:42.218Z,92409.06
2024-01-27T06:16:17.238Z,92411.28
2024-01-27T06:18:51.001Z,92427.38
2024-01-27T06:21:24.777Z,92419.59
2024-01-27T06:23:58.469Z,92434.88
2024-01-27T06:26:32.153Z,92432.28
2024-01-27T06:29:05.855Z,92433.75
2024-01-27T06:31:40.877Z,92449.81
2024-01-27T06:34:14.756Z,92452.94
2024-01-27T06:36:48.520Z,92461.78
2024-01-27T06:39:22.862Z,92465.25
2024-01-27T06:41:56.579Z,92474.41
2024-01-27T06:44:30.443Z,92499.94
2024-01-27T06:47:05.855Z,92481.06
2024-01-27T06:49:40.098Z,92463.72
2024-01-27T06:52:13.935Z,92495.81
2024-01-27T06:54:47.583Z,92508.69
2024-01-27T06:57:22.240Z,92511.59
2024-01-27T06:59:57.168Z,92508.88
2024-01-27T07:02:32.415Z,92492.03
2024-01-27T07:05:06.942Z,92476.50
2024-01-27T07:07:40.640Z,92481.84
2024-01-27T07:10:14.357Z,92495.72
2024-01-27T07:12:48.030Z,92476.50
2024-01-27T07:15:22.853Z,92476.34
2024-01-27T07:17:58.124Z,92473.22
2024-01-27T07:20:31.873Z,92454.88
2024-01-27T07:23:05.897Z,92486.03
2024-01-27T07:25:39.560Z,92481.00
2024-01-27T07:28:13.291Z,92493.50
2024-01-27T07:30:47.730Z,92498.78
2024-01-27T07:33:23.294Z,92515.94
2024-01-27T07:35:57.804Z,92523.09
2024-01-27T07:39:56.713Z,92545.00
2024-01-27T07:42:31.018Z,92558.19
2024-01-27T07:45:06.452Z,92573.94
2024-01-27T07:47:40.422Z,92569.06
2024-01-27T07:50:16.234Z,92589.53
2024-01-27T07:52:49.983Z,92577.19
2024-01-27T07:55:23.817Z,92573.25
2024-01-27T07:57:57.824Z,92577.03
2024-01-27T08:00:32.609Z,92575.88
2024-01-27T08:03:07.177Z,92588.50
2024-01-27T08:05:42.295Z,92591.78
2024-01-27T08:08:15.941Z,92571.19
2024-01-27T08:10:49.660Z,92597.88
2024-01-27T08:13:23.366Z,92601.84
2024-01-27T08:15:57.114Z,92581.44
2024-01-27T08:18:30.936Z,92595.03
2024-01-27T08:21:06.637Z,92622.75
2024-01-27T08:23:41.062Z,92620.06
2024-01-27T08:26:14.840Z,92632.56
2024-01-27T08:28:48.631Z,92616.78
2024-01-27T08:31:22.344Z,92586.03
2024-01-27T08:33:56.107Z,92604.97
2024-01-27T08:36:31.240Z,92602.59
2024-01-27T08:39:05.598Z,92621.19
2024-01-27T08:41:39.245Z,92607.66
2024-01-27T08:44:13.040Z,92612.38
2024-01-27T08:46:46.741Z,92613.38
2024-01-27T08:49:20.679Z,92574.56
2024-01-27T08:51:56.525Z,92551.06
2024-01-27T08:54:30.317Z,92550.91
2024-01-27T08:57:04.463Z,92572.25
2024-01-27T08:59:39.054Z,92579.13
2024-01-27T09:02:12.854Z,92572.56
2024-01-27T09:04:46.582Z,92591.47
2024-01-27T09:07:21.766Z,92593.88
2024-01-27T09:09:55.447Z,92595.78
2024-01-27T09:12:29.303Z,92574.38
2024-01-27T09:15:04.026Z,92583.94
2024-01-27T09:17:38.303Z,92589.16
2024-01-27T09:20:13.456Z,92580.34
2024-01-27T09:22:50.841Z,92588.41
2024-01-27T09:25:25.697Z,92591.88
2024-01-27T09:28:01.958Z,92586.44
2024-01-27T09:30:39.641Z,92578.84
2024-01-27T09:33:14.584Z,92573.88
2024-01-27T09:35:48.989Z,92560.44
2024-01-27T09:38:24.380Z,92571.06
2024-01-27T09:40:58.555Z,92576.75
2024-01-27T09:43:33.373Z,92561.91
2024-01-27T09:46:07.461Z,92558.78
2024-01-27T09:48:42.059Z,92550.59
2024-01-27T09:51:15.936Z,92539.69
2024-01-27T09:53:52.514Z,92539.38
2024-01-27T09:56:27.288Z,92540.75
2024-01-27T09:59:01.996Z,92557.59
2024-01-27T10:01:38.112Z,92570.72
2024-01-27T10:04:12.130Z,92580.78
2024-01-27T10:06:47.554Z,92592.53
2024-01-27T10:09:22.990Z,92602.56
2024-01-27T10:11:58.954Z,92595.72
2024-01-27T10:14:41.275Z,92597.09
2024-01-27T10:17:15.359Z,92597.63
2024-01-27T10:19:49.401Z,92589.31
2024-01-27T10:22:23.160Z,92602.44
2024-01-27T10:24:58.185Z,92591.22
2024-01-27T10:27:31.967Z,92586.09
2024-01-27T10:30:08.649Z,92592.47
2024-01-27T10:32:42.493Z,92603.34
2024-01-27T10:35:16.647Z,92608.81
2024-01-27T10:37:57.578Z,92597.63
2024-01-27T10:40:34.680Z,92607.91
2024-01-27T10:43:09.879Z,92622.09
2024-01-27T10:45:44.135Z,92615.63
2024-01-27T10:48:18.328Z,92618.31
2024-01-27T10:50:53.153Z,92622.59
2024-01-27T10:53:28.667Z,92618.13
2024-01-27T10:56:10.728Z,92623.38
2024-01-27T10:58:48.951Z,92631.44
2024-01-27T11:01:25.512Z,92639.25
2024-01-27T11:04:01.905Z,92629.44
2024-01-27T11:06:38.197Z,92631.22
2024-01-27T11:09:14.155Z,92641.56
2024-01-27T11:11:50.454Z,92648.44
2024-01-27T11:14:24.519Z,92629.28
2024-01-27T11:17:02.237Z,92626.06
2024-01-27T11:19:36.861Z,92644.88
2024-01-27T11:22:27.291Z,92643.63
2024-01-27T11:25:09.956Z,92648.06
2024-01-27T11:27:48.035Z,92655.34
2024-01-27T11:30:30.333Z,92639.44
2024-01-27T11:33:06.042Z,92654.09
2024-01-27T11:35:40.207Z,92644.59
2024-01-27T11:38:15.434Z,92634.97
2024-01-27T11:40:50.922Z,92655.41
2024-01-27T11:43:27.014Z,92659.09
2024-01-27T11:46:01.832Z,92657.97
2024-01-27T11:48:44.610Z,92662.94
2024-01-27T11:51:19.841Z,92673.25
2024-01-27T11:53:54.161Z,92670.41
2024-01-27T11:56:30.515Z,92677.38
2024-01-27T11:59:06.250Z,92682.97
2024-01-27T12:01:41.054Z,92678.38
2024-01-27T12:04:15.992Z,92685.06
2024-01-27T12:06:51.916Z,92680.06
2024-01-27T12:09:26.308Z,92691.66
2024-01-27T12:12:00.862Z,92690.63
2024-01-27T12:14:42.416Z,92701.63
2024-01-27T12:17:16.964Z,92693.81
2024-01-27T12:19:53.981Z,92693.13
2024-01-27T12:22:29.571Z,92706.22
2024-01-27T12:25:11.035Z,92698.59
2024-01-27T12:27:46.275Z,92682.84
2024-01-27T12:30:23.651Z,92710.25
2024-01-27T12:32:57.765Z,92691.09
2024-01-27T12:35:31.975Z,92690.31
2024-01-27T12:38:08.804Z,92699.69
2024-01-27T12:40:42.993Z,92709.59
2024-01-27T12:43:17.277Z,92706.53
2024-01-27T12:45:52.786Z,92715.25
2024-01-27T12:48:26.825Z,92693.00
2024-01-27T12:54:04.027Z,92692.66
2024-01-27T12:56:37.987Z,92700.28
2024-01-27T12:59:12.492Z,92719.88
2024-01-27T13:01:48.464Z,92713.59
2024-01-27T13:04:22.509Z,92714.03
2024-01-27T13:06:56.751Z,92720.88
2024-01-27T13:09:30.564Z,92715.50
2024-01-27T13:12:04.647Z,92715.13
2024-01-27T13:14:38.356Z,92718.19
2024-01-27T13:17:15.419Z,92740.53
2024-01-27T13:19:49.219Z,92735.72
2024-01-27T13:22:25.594Z,92734.50
2024-01-27T13:25:04.791Z,92738.78
2024-01-27T13:27:39.793Z,92735.94
2024-01-27T13:30:14.237Z,92724.63
2024-01-27T13:32:49.439Z,92726.03
2024-01-27T13:35:23.211Z,92727.19
2024-01-27T13:37:56.862Z,92720.34
2024-01-27T13:40:30.590Z,92728.16
2024-01-27T13:43:04.304Z,92731.78
2024-01-27T13:45:38.005Z,92725.38
2024-01-27T13:48:13.274Z,92726.59
2024-01-27T13:50:47.288Z,92734.81
2024-01-27T13:53:22.262Z,92735.84
2024-01-27T13:55:56.371Z,92737.09
2024-01-27T13:58:30.859Z,92737.50
2024-01-27T14:01:04.894Z,92725.88
2024-01-27T14:03:40.319Z,92725.19
2024-01-27T14:06:14.724Z,92735.41
2024-01-27T14:08:48.627Z,92746.03
2024-01-27T14:11:23.145Z,92730.44
2024-01-27T14:13:56.844Z,92728.19
2024-01-27T14:16:30.772Z,92719.59
2024-01-27T14:19:05.943Z,92720.88
2024-01-27T14:21:40.097Z,92714.38
2024-01-27T14:24:14.008Z,92726.69
2024-01-27T14:26:47.698Z,92728.59
2024-01-27T14:29:21.371Z,92725.25
2024-01-27T14:31:55.059Z,92721.56
2024-01-27T14:34:30.254Z,92709.78
2024-01-27T14:37:04.076Z,92706.75
2024-01-27T14:39:37.724Z,92709.44
2024-01-27T14:42:11.442Z,92706.78
2024-01-27T14:44:46.558Z,92700.66
2024-01-27T14:47:21.406Z,92710.25
2024-01-27T14:49:56.734Z,92713.72
2024-01-27T14:52:30.655Z,92714.84
2024-01-27T14:55:04.559Z,92708.69
2024-01-27T14:57:38.811Z,92705.66
2024-01-27T15:00:16.069Z,92701.16
2024-01-27T15:02:50.137Z,92711.88
2024-01-27T15:05:25.240Z,92730.72
2024-01-27T15:07:58.918Z,92726.91
2024-01-27T15:10:33.213Z,92731.72
2024-01-27T15:13:07.229Z,92732.28
2024-01-27T15:15:40.957Z,92735.53
2024-01-27T15:18:14.912Z,92750.41
2024-01-27T15:20:50.029Z,92735.84
2024-01-27T15:23:26.398Z,92726.56
2024-01-27T15:26:02.633Z,92734.84
2024-01-27T15:28:36.377Z,92734.97
2024-01-27T15:31:10.041Z,92764.81
2024-01-27T15:33:44.017Z,92749.41
2024-01-27T15:36:19.121Z,92747.28
2024-01-27T15:38:52.851Z,92750.06
2024-01-27T15:41:26.519Z,92758.03
2024-01-27T15:44:01.895Z,92757.91
2024-01-27T15:46:35.582Z,92765.19
2024-01-27T15:49:09.438Z,92775.34
2024-01-27T15:51:44.624Z,92764.16
2024-01-27T15:54:19.453Z,92777.78
2024-01-27T15:56:53.262Z,92777.44
2024-01-27T15:59:27.084Z,92771.41
2024-01-27T16:02:00.776Z,92780.47
2024-01-27T16:04:35.335Z,92778.69
2024-01-27T16:07:10.524Z,92786.72
2024-01-27T16:09:48.093Z,92786.97
2024-01-27T16:12:21.849Z,92786.06
2024-01-27T16:14:55.657Z,92799.47
2024-01-27T16:17:29.355Z,92794.78
2024-01-27T16:20:04.651Z,92795.66
2024-01-27T16:22:39.843Z,92799.16
2024-01-27T16:25:13.557Z,92797.38
2024-01-27T16:27:47.237Z,92790.44
2024-01-27T16:30:21.027Z,92806.09
2024-01-27T16:32:54.767Z,92808.47
2024-01-27T16:35:28.599Z,92808.34
2024-01-27T16:38:03.831Z,92807.22
2024-01-27T16:40:37.618Z,92809.91
2024-01-27T16:43:11.242Z,92813.63
2024-01-27T16:45:44.976Z,92809.91
2024-01-27T16:48:18.835Z,92809.22
2024-01-27T16:50:52.614Z,92797.38
2024-01-27T16:53:27.632Z,92807.44
2024-01-27T16:56:01.874Z,92808.00
2024-01-27T16:58:35.580Z,92816.81
2024-01-27T17:01:09.337Z,92816.50
2024-01-27T17:03:43.218Z,92805.44
2024-01-27T17:06:18.527Z,92803.19
2024-01-27T17:08:54.547Z,92797.00
2024-01-27T17:11:28.204Z,92808.53
2024-01-27T17:14:01.873Z,92806.03
2024-01-27T17:16:35.540Z,92810.63
2024-01-27T17:19:09.310Z,92811.97
2024-01-27T17:21:43.385Z,92806.59
2024-01-27T17:24:18.693Z,92804.81
2024-01-27T17:26:52.596Z,92814.63
2024-01-27T17:29:26.280Z,92807.50
2024-01-27T17:31:59.975Z,92804.00
2024-01-27T17:34:34.718Z,92809.03
2024-01-27T17:37:08.520Z,92814.97
2024-01-27T17:39:43.607Z,92823.22
2024-01-27T17:42:18.194Z,92810.13
2024-01-27T17:44:52.477Z,92818.41
2024-01-27T17:47:26.183Z,92823.34
2024-01-27T17:49:59.911Z,92830.81
2024-01-27T17:52:37.408Z,92837.53
2024-01-27T17:55:14.023Z,92827.69
2024-01-27T17:57:47.798Z,92832.16
2024-01-27T18:00:22.081Z,92817.06
2024-01-27T18:02:56.109Z,92834.03
2024-01-27T18:05:29.808Z,92835.47
2024-01-27T18:08:04.047Z,92847.00
2024-01-27T18:10:39.132Z,92836.13
2024-01-27T18:13:13.061Z,92836.44
2024-01-27T18:15:46.819Z,92837.22
2024-01-27T18:18:20.806Z,92838.50
2024-01-27T18:20:54.884Z,92842.19
2024-01-27T18:23:28.616Z,92843.84
2024-01-27T18:26:03.794Z,92852.69
2024-01-27T18:28:37.472Z,92849.31
2024-01-27T18:31:11.457Z,92858.88
2024-01-27T18:33:47.165Z,92862.78
2024-01-27T18:36:22.341Z,92862.28
2024-01-27T18:38:56.429Z,92849.78
2024-01-27T18:41:31.494Z,92850.50
2024-01-27T18:44:05.316Z,92838.88
2024-01-27T18:46:39.053Z,92847.16
2024-01-27T18:49:15.082Z,92845.22
2024-01-27T18:51:50.197Z,92847.72
2024-01-27T18:54:24.560Z,92861.69
2024-01-27T18:57:02.177Z,92861.47
2024-01-27T18:59:35.911Z,92864.41
2024-01-27T19:02:11.538Z,92865.41
2024-01-27T19:04:45.605Z,92855.47
2024-01-27T19:07:19.450Z,92867.25
2024-01-27T19:09:53.144Z,92867.59
2024-01-27T19:12:28.233Z,92869.81
2024-01-27T19:15:02.717Z,92862.28
2024-01-27T19:17:36.594Z,92882.53
2024-01-27T19:20:12.713Z,92880.03
2024-01-27T19:22:47.742Z,92874.19
2024-01-27T19:25:21.554Z,92879.47
2024-01-27T19:27:59.794Z,92884.81
2024-01-27T19:30:34.830Z,92887.91
2024-01-27T19:33:08.693Z,92879.84
2024-01-27T19:35:42.411Z,92875.47
2024-01-27T19:38:16.499Z,92873.41
2024-01-27T19:41:02.466Z,92873.16
2024-01-27T19:43:47.841Z,92880.16
2024-01-27T19:46:21.673Z,92872.19
2024-01-27T19:48:55.627Z,92862.88
2024-01-27T19:51:30.358Z,92863.78
2024-01-27T19:54:04.244Z,92867.94
2024-01-27T19:56:37.965Z,92875.91
2024-01-27T19:59:13.006Z,92882.97
2024-01-27T20:01:46.629Z,92877.41
2024-01-27T20:04:20.539Z,92878.91
2024-01-27T20:06:57.082Z,92879.91
2024-01-27T20:09:30.959Z,92891.75
2024-01-27T20:12:05.093Z,92899.19
2024-01-27T20:14:40.092Z,92885.00
2024-01-27T20:17:14.029Z,92886.41
2024-01-27T20:19:49.178Z,92870.34
2024-01-27T20:22:22.954Z,92881.34
2024-01-27T20:24:57.350Z,92875.22
2024-01-27T20:27:32.238Z,92885.75
2024-01-27T20:30:09.216Z,92877.56
2024-01-27T20:32:43.186Z,92884.78
2024-01-27T20:35:17.060Z,92887.00
2024-01-27T20:37:51.306Z,92888.47
2024-01-27T20:40:26.182Z,92887.41
2024-01-27T20:43:01.957Z,92890.03
2024-01-27T20:45:37.021Z,92880.56
2024-01-27T20:48:14.555Z,92882.78
2024-01-27T20:50:48.442Z,92878.34
2024-01-27T20:53:22.301Z,92880.84
2024-01-27T20:55:56.314Z,92874.47
2024-01-27T20:58:30.204Z,92889.41
2024-01-27T21:01:06.199Z,92878.28
2024-01-27T21:03:40.500Z,92878.19
2024-01-27T21:06:14.320Z,92875.78
2024-01-27T21:08:47.997Z,92876.84
2024-01-27T21:11:21.657Z,92868.53
2024-01-27T21:13:55.856Z,92872.91
2024-01-27T21:16:33.184Z,92864.78
2024-01-27T21:19:07.749Z,92855.53
2024-01-27T21:21:41.433Z,92851.59
2024-01-27T21:24:15.931Z,92862.63
2024-01-27T21:26:49.623Z,92864.34
2024-01-27T21:29:23.330Z,92871.28
2024-01-27T21:32:00.873Z,92866.50
2024-01-27T21:34:34.657Z,92870.63
2024-01-27T21:37:11.245Z,92864.00
2024-01-27T21:39:45.282Z,92865.94
2024-01-27T21:42:19.436Z,92870.19
2024-01-27T21:44:53.424Z,92869.63
2024-01-27T21:47:28.465Z,92874.72
2024-01-27T21:50:02.372Z,92869.50
2024-01-27T21:52:36.399Z,92867.72
2024-01-27T21:55:10.366Z,92882.41
2024-01-27T21:57:44.149Z,92880.00
2024-01-27T22:00:18.841Z,92874.72
2024-01-27T22:02:54.071Z,92880.56
2024-01-27T22:05:28.188Z,92870.44
2024-01-27T22:08:04.436Z,92880.97
2024-01-27T22:10:38.364Z,92862.66
2024-01-27T22:13:12.001Z,92872.34
2024-01-27T22:15:45.725Z,92880.22
2024-01-27T22:18:20.941Z,92877.34
2024-01-27T22:20:55.774Z,92880.91
2024-01-27T22:23:29.460Z,92884.69
2024-01-27T22:26:03.464Z,92878.41
2024-01-27T22:28:38.774Z,92876.00
2024-01-27T22:31:12.425Z,92872.22
2024-01-27T22:33:47.564Z,92865.66
2024-01-27T22:36:21.321Z,92861.31
2024-01-27T22:38:56.688Z,92854.59
2024-01-27T22:41:31.436Z,92866.56
2024-01-27T22:44:05.507Z,92864.72
2024-01-27T22:46:39.816Z,92874.28
2024-01-27T22:49:15.015Z,92866.38
2024-01-27T22:51:49.977Z,92874.22
2024-01-27T22:54:24.005Z,92855.44
2024-01-27T22:56:57.667Z,92863.28
2024-01-27T22:59:31.281Z,92864.50
2024-01-27T23:02:05.088Z,92869.13
2024-01-27T23:04:40.106Z,92876.19
2024-01-27T23:07:14.081Z,92862.13
2024-01-27T23:09:50.377Z,92860.31
2024-01-27T23:12:25.131Z,92864.59
2024-01-27T23:14:58.917Z,92860.38
2024-01-27T23:17:33.008Z,92866.22
2024-01-27T23:20:09.656Z,92863.66
2024-01-27T23:22:43.665Z,92864.22
2024-01-27T23:25:17.293Z,92870.13
2024-01-27T23:27:50.996Z,92865.81
2024-01-27T23:30:24.913Z,92860.31
2024-01-27T23:32:58.662Z,92867.88
2024-01-27T23:35:34.003Z,92866.06
2024-01-27T23:38:08.582Z,92872.91
2024-01-27T23:40:42.246Z,92872.16
2024-01-27T23:43:15.925Z,92872.56
2024-01-27T23:45:50.668Z,92868.78
2024-01-27T23:48:24.756Z,92870.44
2024-01-27T23:51:00.231Z,92877.28
2024-01-27T23:53:34.233Z,92883.19
2024-01-27T23:56:08.667Z,92875.28
2024-01-27T23:58:42.304Z,92879.19
